sensor_id;sensor_type;location;lat;lon;timestamp;P1;durP1;ratioP1;P2;durP2;ratioP2
26806;SDS011;14380;49.910;6.792;2023-02-18T00:01:31;5.63;;;4.18;;
26806;SDS011;14380;49.910;6.792;2023-02-18T00:04:00;4.82;;;4.20;;
26806;SDS011;14380;49.910;6.792;2023-02-18T00:06:28;5.75;;;4.35;;
26806;SDS011;14380;49.910;6.792;2023-02-18T00:08:57;4.35;;;3.95;;
26806;SDS011;14380;49.910;6.792;2023-02-18T00:11:26;4.72;;;4.32;;
26806;SDS011;14380;49.910;6.792;2023-02-18T00:13:57;5.97;;;3.90;;
26806;SDS011;14380;49.910;6.792;2023-02-18T00:16:25;5.72;;;4.50;;
26806;SDS011;14380;49.910;6.792;2023-02-18T00:18:54;4.93;;;4.30;;
26806;SDS011;14380;49.910;6.792;2023-02-18T00:21:22;6.97;;;4.45;;
26806;SDS011;14380;49.910;6.792;2023-02-18T00:23:49;5.10;;;4.60;;
26806;SDS011;14380;49.910;6.792;2023-02-18T00:26:17;5.95;;;4.38;;
26806;SDS011;14380;49.910;6.792;2023-02-18T00:28:44;6.60;;;4.43;;
26806;SDS011;14380;49.910;6.792;2023-02-18T00:31:13;5.32;;;4.82;;
26806;SDS011;14380;49.910;6.792;2023-02-18T00:33:43;5.65;;;4.68;;
26806;SDS011;14380;49.910;6.792;2023-02-18T00:36:11;5.22;;;4.47;;
26806;SDS011;14380;49.910;6.792;2023-02-18T00:38:43;5.90;;;4.55;;
26806;SDS011;14380;49.910;6.792;2023-02-18T00:41:11;4.45;;;4.05;;
26806;SDS011;14380;49.910;6.792;2023-02-18T00:43:38;5.40;;;4.20;;
26806;SDS011;14380;49.910;6.792;2023-02-18T00:46:04;5.80;;;4.75;;
26806;SDS011;14380;49.910;6.792;2023-02-18T00:48:32;7.25;;;5.30;;
26806;SDS011;14380;49.910;6.792;2023-02-18T00:50:59;6.75;;;5.38;;
26806;SDS011;14380;49.910;6.792;2023-02-18T00:53:26;7.18;;;5.50;;
26806;SDS011;14380;49.910;6.792;2023-02-18T00:55:54;7.45;;;5.05;;
26806;SDS011;14380;49.910;6.792;2023-02-18T00:58:21;9.50;;;5.30;;
26806;SDS011;14380;49.910;6.792;2023-02-18T01:00:49;5.80;;;5.20;;
26806;SDS011;14380;49.910;6.792;2023-02-18T01:03:16;6.53;;;5.57;;
26806;SDS011;14380;49.910;6.792;2023-02-18T01:05:43;7.07;;;5.55;;
26806;SDS011;14380;49.910;6.792;2023-02-18T01:08:10;6.18;;;5.47;;
26806;SDS011;14380;49.910;6.792;2023-02-18T01:10:39;6.07;;;5.30;;
26806;SDS011;14380;49.910;6.792;2023-02-18T01:13:10;7.10;;;5.57;;
26806;SDS011;14380;49.910;6.792;2023-02-18T01:15:37;7.85;;;5.80;;
26806;SDS011;14380;49.910;6.792;2023-02-18T01:18:05;7.43;;;5.57;;
26806;SDS011;14380;49.910;6.792;2023-02-18T01:20:33;9.70;;;6.03;;
26806;SDS011;14380;49.910;6.792;2023-02-18T01:23:00;8.45;;;5.60;;
26806;SDS011;14380;49.910;6.792;2023-02-18T01:25:26;6.55;;;4.60;;
26806;SDS011;14380;49.910;6.792;2023-02-18T01:27:53;6.40;;;5.40;;
26806;SDS011;14380;49.910;6.792;2023-02-18T01:30:22;8.25;;;5.22;;
26806;SDS011;14380;49.910;6.792;2023-02-18T01:32:49;7.32;;;5.10;;
26806;SDS011;14380;49.910;6.792;2023-02-18T01:35:16;6.10;;;4.75;;
26806;SDS011;14380;49.910;6.792;2023-02-18T01:37:45;6.30;;;4.50;;
26806;SDS011;14380;49.910;6.792;2023-02-18T01:40:14;5.53;;;4.40;;
26806;SDS011;14380;49.910;6.792;2023-02-18T01:42:43;6.20;;;3.35;;
26806;SDS011;14380;49.910;6.792;2023-02-18T01:48:22;5.43;;;3.97;;
26806;SDS011;14380;49.910;6.792;2023-02-18T01:51:02;4.97;;;3.47;;
26806;SDS011;14380;49.910;6.792;2023-02-18T01:53:35;4.85;;;3.83;;
26806;SDS011;14380;49.910;6.792;2023-02-18T01:56:07;3.75;;;3.28;;
26806;SDS011;14380;49.910;6.792;2023-02-18T01:58:39;3.92;;;3.42;;
26806;SDS011;14380;49.910;6.792;2023-02-18T02:01:08;4.15;;;3.58;;
26806;SDS011;14380;49.910;6.792;2023-02-18T02:03:36;5.68;;;3.03;;
26806;SDS011;14380;49.910;6.792;2023-02-18T02:06:05;4.85;;;3.17;;
26806;SDS011;14380;49.910;6.792;2023-02-18T02:08:37;4.30;;;2.88;;
26806;SDS011;14380;49.910;6.792;2023-02-18T02:11:06;2.90;;;2.53;;
26806;SDS011;14380;49.910;6.792;2023-02-18T02:16:33;2.97;;;2.33;;
26806;SDS011;14380;49.910;6.792;2023-02-18T02:19:10;2.35;;;2.15;;
26806;SDS011;14380;49.910;6.792;2023-02-18T02:25:17;2.92;;;2.35;;
26806;SDS011;14380;49.910;6.792;2023-02-18T02:31:35;2.20;;;2.00;;
26806;SDS011;14380;49.910;6.792;2023-02-18T02:34:33;2.13;;;1.92;;
26806;SDS011;14380;49.910;6.792;2023-02-18T02:37:10;2.20;;;2.00;;
26806;SDS011;14380;49.910;6.792;2023-02-18T02:39:42;2.75;;;2.30;;
26806;SDS011;14380;49.910;6.792;2023-02-18T02:42:18;3.70;;;2.42;;
26806;SDS011;14380;49.910;6.792;2023-02-18T02:44:53;2.50;;;2.13;;
26806;SDS011;14380;49.910;6.792;2023-02-18T02:47:25;2.42;;;2.10;;
26806;SDS011;14380;49.910;6.792;2023-02-18T02:50:02;2.45;;;2.25;;
26806;SDS011;14380;49.910;6.792;2023-02-18T02:52:33;2.53;;;2.33;;
26806;SDS011;14380;49.910;6.792;2023-02-18T02:55:07;2.35;;;2.15;;
26806;SDS011;14380;49.910;6.792;2023-02-18T02:57:42;3.70;;;2.90;;
26806;SDS011;14380;49.910;6.792;2023-02-18T03:00:13;3.00;;;2.67;;
26806;SDS011;14380;49.910;6.792;2023-02-18T03:02:46;3.15;;;2.85;;
26806;SDS011;14380;49.910;6.792;2023-02-18T03:05:29;3.13;;;2.83;;
26806;SDS011;14380;49.910;6.792;2023-02-18T03:08:08;3.60;;;2.95;;
26806;SDS011;14380;49.910;6.792;2023-02-18T03:10:47;4.38;;;3.30;;
26806;SDS011;14380;49.910;6.792;2023-02-18T03:13:25;3.55;;;3.25;;
26806;SDS011;14380;49.910;6.792;2023-02-18T03:15:59;3.78;;;3.47;;
26806;SDS011;14380;49.910;6.792;2023-02-18T03:18:37;6.95;;;4.30;;
26806;SDS011;14380;49.910;6.792;2023-02-18T03:21:09;3.78;;;3.47;;
26806;SDS011;14380;49.910;6.792;2023-02-18T03:23:41;4.50;;;3.80;;
26806;SDS011;14380;49.910;6.792;2023-02-18T03:26:15;6.38;;;3.83;;
26806;SDS011;14380;49.910;6.792;2023-02-18T03:28:44;4.32;;;3.88;;
26806;SDS011;14380;49.910;6.792;2023-02-18T03:31:15;4.88;;;4.47;;
26806;SDS011;14380;49.910;6.792;2023-02-18T03:33:47;4.88;;;4.10;;
26806;SDS011;14380;49.910;6.792;2023-02-18T03:36:19;5.72;;;5.07;;
26806;SDS011;14380;49.910;6.792;2023-02-18T03:38:50;4.32;;;3.92;;
26806;SDS011;14380;49.910;6.792;2023-02-18T03:41:21;6.10;;;4.30;;
26806;SDS011;14380;49.910;6.792;2023-02-18T03:43:48;5.00;;;4.55;;
26806;SDS011;14380;49.910;6.792;2023-02-18T03:46:15;4.00;;;3.65;;
26806;SDS011;14380;49.910;6.792;2023-02-18T03:48:42;4.55;;;4.15;;
26806;SDS011;14380;49.910;6.792;2023-02-18T03:51:10;4.13;;;3.72;;
26806;SDS011;14380;49.910;6.792;2023-02-18T03:53:38;3.47;;;3.17;;
26806;SDS011;14380;49.910;6.792;2023-02-18T03:56:05;3.03;;;2.72;;
26806;SDS011;14380;49.910;6.792;2023-02-18T03:58:32;3.00;;;2.70;;
26806;SDS011;14380;49.910;6.792;2023-02-18T04:00:58;2.60;;;2.40;;
26806;SDS011;14380;49.910;6.792;2023-02-18T04:03:25;2.97;;;2.20;;
26806;SDS011;14380;49.910;6.792;2023-02-18T04:05:52;2.83;;;2.60;;
26806;SDS011;14380;49.910;6.792;2023-02-18T04:08:18;2.08;;;1.98;;
26806;SDS011;14380;49.910;6.792;2023-02-18T04:10:46;2.78;;;2.33;;
26806;SDS011;14380;49.910;6.792;2023-02-18T04:13:13;2.60;;;2.40;;
26806;SDS011;14380;49.910;6.792;2023-02-18T04:15:39;1.95;;;1.85;;
26806;SDS011;14380;49.910;6.792;2023-02-18T04:18:06;2.38;;;1.88;;
26806;SDS011;14380;49.910;6.792;2023-02-18T04:20:32;4.20;;;1.67;;
26806;SDS011;14380;49.910;6.792;2023-02-18T04:22:59;2.13;;;1.50;;
26806;SDS011;14380;49.910;6.792;2023-02-18T04:25:25;1.30;;;1.20;;
26806;SDS011;14380;49.910;6.792;2023-02-18T04:27:53;1.40;;;1.30;;
26806;SDS011;14380;49.910;6.792;2023-02-18T04:30:20;1.63;;;1.30;;
26806;SDS011;14380;49.910;6.792;2023-02-18T04:32:47;1.33;;;1.23;;
26806;SDS011;14380;49.910;6.792;2023-02-18T04:35:14;2.38;;;1.50;;
26806;SDS011;14380;49.910;6.792;2023-02-18T04:37:40;2.95;;;2.20;;
26806;SDS011;14380;49.910;6.792;2023-02-18T04:40:07;3.55;;;3.05;;
26806;SDS011;14380;49.910;6.792;2023-02-18T04:42:35;4.47;;;2.40;;
26806;SDS011;14380;49.910;6.792;2023-02-18T04:45:05;3.25;;;2.83;;
26806;SDS011;14380;49.910;6.792;2023-02-18T04:47:32;3.50;;;3.05;;
26806;SDS011;14380;49.910;6.792;2023-02-18T04:49:59;4.40;;;3.17;;
26806;SDS011;14380;49.910;6.792;2023-02-18T04:52:25;3.95;;;3.00;;
26806;SDS011;14380;49.910;6.792;2023-02-18T04:54:52;5.03;;;3.78;;
26806;SDS011;14380;49.910;6.792;2023-02-18T04:57:19;4.00;;;3.60;;
26806;SDS011;14380;49.910;6.792;2023-02-18T04:59:45;5.28;;;3.70;;
26806;SDS011;14380;49.910;6.792;2023-02-18T05:02:13;5.43;;;4.32;;
26806;SDS011;14380;49.910;6.792;2023-02-18T05:04:40;6.43;;;4.30;;
26806;SDS011;14380;49.910;6.792;2023-02-18T05:07:06;4.70;;;4.30;;
26806;SDS011;14380;49.910;6.792;2023-02-18T05:09:33;7.57;;;4.63;;
26806;SDS011;14380;49.910;6.792;2023-02-18T05:12:00;5.13;;;4.07;;
26806;SDS011;14380;49.910;6.792;2023-02-18T05:14:26;6.07;;;4.60;;
26806;SDS011;14380;49.910;6.792;2023-02-18T05:16:53;4.72;;;4.25;;
26806;SDS011;14380;49.910;6.792;2023-02-18T05:19:21;4.97;;;4.55;;
26806;SDS011;14380;49.910;6.792;2023-02-18T05:21:48;4.95;;;4.40;;
26806;SDS011;14380;49.910;6.792;2023-02-18T05:24:14;5.18;;;4.68;;
26806;SDS011;14380;49.910;6.792;2023-02-18T05:26:41;5.47;;;4.70;;
26806;SDS011;14380;49.910;6.792;2023-02-18T05:29:07;5.22;;;4.50;;
26806;SDS011;14380;49.910;6.792;2023-02-18T05:31:34;5.05;;;4.43;;
26806;SDS011;14380;49.910;6.792;2023-02-18T05:34:02;7.95;;;4.35;;
26806;SDS011;14380;49.910;6.792;2023-02-18T05:36:30;5.95;;;5.45;;
26806;SDS011;14380;49.910;6.792;2023-02-18T05:38:57;6.72;;;5.28;;
26806;SDS011;14380;49.910;6.792;2023-02-18T05:41:23;5.55;;;5.03;;
26806;SDS011;14380;49.910;6.792;2023-02-18T05:43:50;5.78;;;4.88;;
26806;SDS011;14380;49.910;6.792;2023-02-18T05:46:34;5.93;;;5.07;;
26806;SDS011;14380;49.910;6.792;2023-02-18T05:49:01;6.65;;;5.60;;
26806;SDS011;14380;49.910;6.792;2023-02-18T05:51:27;6.45;;;5.38;;
26806;SDS011;14380;49.910;6.792;2023-02-18T05:53:55;5.97;;;5.40;;
26806;SDS011;14380;49.910;6.792;2023-02-18T05:56:22;9.63;;;5.50;;
26806;SDS011;14380;49.910;6.792;2023-02-18T05:58:49;7.90;;;5.82;;
26806;SDS011;14380;49.910;6.792;2023-02-18T06:01:15;7.35;;;5.30;;
26806;SDS011;14380;49.910;6.792;2023-02-18T06:03:42;6.90;;;5.07;;
26806;SDS011;14380;49.910;6.792;2023-02-18T06:06:08;4.72;;;4.32;;
26806;SDS011;14380;49.910;6.792;2023-02-18T06:08:35;5.85;;;4.32;;
26806;SDS011;14380;49.910;6.792;2023-02-18T06:11:03;4.93;;;4.53;;
26806;SDS011;14380;49.910;6.792;2023-02-18T06:13:30;5.40;;;4.90;;
26806;SDS011;14380;49.910;6.792;2023-02-18T06:15:56;6.07;;;5.00;;
26806;SDS011;14380;49.910;6.792;2023-02-18T06:18:23;7.45;;;5.30;;
26806;SDS011;14380;49.910;6.792;2023-02-18T06:20:50;6.45;;;5.60;;
26806;SDS011;14380;49.910;6.792;2023-02-18T06:23:17;6.55;;;5.45;;
26806;SDS011;14380;49.910;6.792;2023-02-18T06:25:43;7.03;;;5.20;;
26806;SDS011;14380;49.910;6.792;2023-02-18T06:28:11;4.80;;;4.35;;
26806;SDS011;14380;49.910;6.792;2023-02-18T06:30:38;5.00;;;4.50;;
26806;SDS011;14380;49.910;6.792;2023-02-18T06:33:04;4.85;;;4.28;;
26806;SDS011;14380;49.910;6.792;2023-02-18T06:35:31;4.28;;;3.33;;
26806;SDS011;14380;49.910;6.792;2023-02-18T06:37:58;5.15;;;3.55;;
26806;SDS011;14380;49.910;6.792;2023-02-18T06:40:24;3.55;;;3.20;;
26806;SDS011;14380;49.910;6.792;2023-02-18T06:42:51;8.23;;;3.05;;
26806;SDS011;14380;49.910;6.792;2023-02-18T06:45:19;3.85;;;3.10;;
26806;SDS011;14380;49.910;6.792;2023-02-18T06:47:45;3.33;;;2.42;;
26806;SDS011;14380;49.910;6.792;2023-02-18T06:50:12;4.13;;;3.00;;
26806;SDS011;14380;49.910;6.792;2023-02-18T06:52:39;3.10;;;2.50;;
26806;SDS011;14380;49.910;6.792;2023-02-18T06:55:06;2.90;;;2.33;;
26806;SDS011;14380;49.910;6.792;2023-02-18T06:57:34;4.32;;;2.80;;
26806;SDS011;14380;49.910;6.792;2023-02-18T07:00:02;5.15;;;3.10;;
26806;SDS011;14380;49.910;6.792;2023-02-18T07:02:30;2.95;;;2.63;;
26806;SDS011;14380;49.910;6.792;2023-02-18T07:04:57;5.45;;;2.95;;
26806;SDS011;14380;49.910;6.792;2023-02-18T07:07:24;3.72;;;3.00;;
26806;SDS011;14380;49.910;6.792;2023-02-18T07:09:50;3.65;;;2.45;;
26806;SDS011;14380;49.910;6.792;2023-02-18T07:12:17;6.43;;;2.85;;
26806;SDS011;14380;49.910;6.792;2023-02-18T07:14:44;4.07;;;2.92;;
26806;SDS011;14380;49.910;6.792;2023-02-18T07:17:10;5.05;;;2.70;;
26806;SDS011;14380;49.910;6.792;2023-02-18T07:19:39;4.32;;;3.35;;
26806;SDS011;14380;49.910;6.792;2023-02-18T07:22:06;3.97;;;2.65;;
26806;SDS011;14380;49.910;6.792;2023-02-18T07:24:32;3.83;;;2.45;;
26806;SDS011;14380;49.910;6.792;2023-02-18T07:26:59;3.63;;;2.33;;
26806;SDS011;14380;49.910;6.792;2023-02-18T07:29:26;4.53;;;2.60;;
26806;SDS011;14380;49.910;6.792;2023-02-18T07:31:53;3.10;;;2.35;;
26806;SDS011;14380;49.910;6.792;2023-02-18T07:34:19;3.50;;;2.55;;
26806;SDS011;14380;49.910;6.792;2023-02-18T07:36:48;4.35;;;2.78;;
26806;SDS011;14380;49.910;6.792;2023-02-18T07:39:14;2.85;;;2.55;;
26806;SDS011;14380;49.910;6.792;2023-02-18T07:41:44;2.75;;;2.45;;
26806;SDS011;14380;49.910;6.792;2023-02-18T07:44:11;4.90;;;2.60;;
26806;SDS011;14380;49.910;6.792;2023-02-18T07:46:38;3.30;;;2.28;;
26806;SDS011;14380;49.910;6.792;2023-02-18T07:49:05;4.10;;;2.50;;
26806;SDS011;14380;49.910;6.792;2023-02-18T07:51:32;3.67;;;3.00;;
26806;SDS011;14380;49.910;6.792;2023-02-18T07:54:00;4.47;;;2.80;;
26806;SDS011;14380;49.910;6.792;2023-02-18T07:56:27;4.95;;;2.65;;
26806;SDS011;14380;49.910;6.792;2023-02-18T07:58:54;4.80;;;2.55;;
26806;SDS011;14380;49.910;6.792;2023-02-18T08:01:20;2.67;;;2.28;;
26806;SDS011;14380;49.910;6.792;2023-02-18T08:03:47;5.00;;;2.92;;
26806;SDS011;14380;49.910;6.792;2023-02-18T08:06:18;5.82;;;2.47;;
26806;SDS011;14380;49.910;6.792;2023-02-18T08:08:47;5.55;;;2.28;;
26806;SDS011;14380;49.910;6.792;2023-02-18T08:11:16;3.35;;;1.83;;
26806;SDS011;14380;49.910;6.792;2023-02-18T08:13:42;4.72;;;1.98;;
26806;SDS011;14380;49.910;6.792;2023-02-18T08:16:09;3.20;;;2.38;;
26806;SDS011;14380;49.910;6.792;2023-02-18T08:18:36;2.60;;;2.10;;
26806;SDS011;14380;49.910;6.792;2023-02-18T08:21:03;3.40;;;1.98;;
26806;SDS011;14380;49.910;6.792;2023-02-18T08:23:30;1.90;;;1.70;;
26806;SDS011;14380;49.910;6.792;2023-02-18T08:25:57;1.88;;;1.60;;
26806;SDS011;14380;49.910;6.792;2023-02-18T08:28:25;2.08;;;1.65;;
26806;SDS011;14380;49.910;6.792;2023-02-18T08:30:53;1.92;;;1.10;;
26806;SDS011;14380;49.910;6.792;2023-02-18T08:33:20;2.60;;;1.10;;
26806;SDS011;14380;49.910;6.792;2023-02-18T08:35:48;1.10;;;1.00;;
26806;SDS011;14380;49.910;6.792;2023-02-18T08:38:16;1.48;;;1.27;;
26806;SDS011;14380;49.910;6.792;2023-02-18T08:40:44;1.35;;;1.00;;
26806;SDS011;14380;49.910;6.792;2023-02-18T08:43:11;1.52;;;1.35;;
26806;SDS011;14380;49.910;6.792;2023-02-18T08:45:40;2.60;;;1.15;;
26806;SDS011;14380;49.910;6.792;2023-02-18T08:48:09;1.30;;;1.00;;
26806;SDS011;14380;49.910;6.792;2023-02-18T08:50:36;2.22;;;0.98;;
26806;SDS011;14380;49.910;6.792;2023-02-18T08:53:03;2.22;;;1.33;;
26806;SDS011;14380;49.910;6.792;2023-02-18T08:55:31;1.23;;;0.90;;
26806;SDS011;14380;49.910;6.792;2023-02-18T08:57:59;1.30;;;0.70;;
26806;SDS011;14380;49.910;6.792;2023-02-18T09:00:25;2.47;;;0.80;;
26806;SDS011;14380;49.910;6.792;2023-02-18T09:02:54;2.58;;;0.90;;
26806;SDS011;14380;49.910;6.792;2023-02-18T09:05:21;4.07;;;1.20;;
26806;SDS011;14380;49.910;6.792;2023-02-18T09:07:48;1.08;;;0.60;;
26806;SDS011;14380;49.910;6.792;2023-02-18T09:10:15;4.97;;;1.17;;
26806;SDS011;14380;49.910;6.792;2023-02-18T09:12:42;1.45;;;0.93;;
26806;SDS011;14380;49.910;6.792;2023-02-18T09:15:08;2.30;;;0.93;;
26806;SDS011;14380;49.910;6.792;2023-02-18T09:17:36;3.13;;;1.10;;
26806;SDS011;14380;49.910;6.792;2023-02-18T09:20:06;4.00;;;1.00;;
26806;SDS011;14380;49.910;6.792;2023-02-18T09:22:33;4.07;;;1.42;;
26806;SDS011;14380;49.910;6.792;2023-02-18T09:25:00;1.40;;;1.08;;
26806;SDS011;14380;49.910;6.792;2023-02-18T09:27:27;3.20;;;1.10;;
26806;SDS011;14380;49.910;6.792;2023-02-18T09:29:53;3.13;;;1.42;;
26806;SDS011;14380;49.910;6.792;2023-02-18T09:32:20;5.22;;;1.00;;
26806;SDS011;14380;49.910;6.792;2023-02-18T09:34:47;4.72;;;1.35;;
26806;SDS011;14380;49.910;6.792;2023-02-18T09:37:15;6.13;;;1.70;;
26806;SDS011;14380;49.910;6.792;2023-02-18T09:39:41;6.97;;;1.20;;
26806;SDS011;14380;49.910;6.792;2023-02-18T09:42:10;3.05;;;1.20;;
26806;SDS011;14380;49.910;6.792;2023-02-18T09:44:41;3.72;;;1.48;;
26806;SDS011;14380;49.910;6.792;2023-02-18T09:47:10;5.95;;;1.42;;
26806;SDS011;14380;49.910;6.792;2023-02-18T09:49:42;6.05;;;2.30;;
26806;SDS011;14380;49.910;6.792;2023-02-18T09:52:13;7.25;;;2.70;;
26806;SDS011;14380;49.910;6.792;2023-02-18T09:54:44;10.00;;;2.42;;
26806;SDS011;14380;49.910;6.792;2023-02-18T09:57:16;7.20;;;1.50;;
26806;SDS011;14380;49.910;6.792;2023-02-18T09:59:48;2.80;;;1.15;;
26806;SDS011;14380;49.910;6.792;2023-02-18T10:02:22;4.30;;;1.45;;
26806;SDS011;14380;49.910;6.792;2023-02-18T10:04:50;5.32;;;1.75;;
26806;SDS011;14380;49.910;6.792;2023-02-18T10:07:20;3.85;;;1.58;;
26806;SDS011;14380;49.910;6.792;2023-02-18T10:09:51;3.63;;;1.20;;
26806;SDS011;14380;49.910;6.792;2023-02-18T10:12:21;6.18;;;2.05;;
26806;SDS011;14380;49.910;6.792;2023-02-18T10:14:50;5.43;;;1.70;;
26806;SDS011;14380;49.910;6.792;2023-02-18T10:17:18;3.33;;;1.67;;
26806;SDS011;14380;49.910;6.792;2023-02-18T10:19:47;6.80;;;1.80;;
26806;SDS011;14380;49.910;6.792;2023-02-18T10:22:15;6.50;;;2.05;;
26806;SDS011;14380;49.910;6.792;2023-02-18T10:24:46;7.90;;;2.08;;
26806;SDS011;14380;49.910;6.792;2023-02-18T10:27:16;6.68;;;2.22;;
26806;SDS011;14380;49.910;6.792;2023-02-18T10:29:47;4.85;;;1.67;;
26806;SDS011;14380;49.910;6.792;2023-02-18T10:32:15;6.32;;;1.95;;
26806;SDS011;14380;49.910;6.792;2023-02-18T10:34:48;3.83;;;1.80;;
26806;SDS011;14380;49.910;6.792;2023-02-18T10:37:29;7.68;;;1.88;;
26806;SDS011;14380;49.910;6.792;2023-02-18T10:40:11;5.20;;;1.58;;
26806;SDS011;14380;49.910;6.792;2023-02-18T10:42:48;5.88;;;1.67;;
26806;SDS011;14380;49.910;6.792;2023-02-18T10:45:27;5.68;;;1.90;;
26806;SDS011;14380;49.910;6.792;2023-02-18T10:48:09;5.65;;;1.70;;
26806;SDS011;14380;49.910;6.792;2023-02-18T10:50:50;3.85;;;1.90;;
26806;SDS011;14380;49.910;6.792;2023-02-18T10:53:19;2.45;;;1.60;;
26806;SDS011;14380;49.910;6.792;2023-02-18T10:56:02;6.78;;;2.00;;
26806;SDS011;14380;49.910;6.792;2023-02-18T10:58:31;4.68;;;1.92;;
26806;SDS011;14380;49.910;6.792;2023-02-18T11:01:00;8.52;;;1.90;;
26806;SDS011;14380;49.910;6.792;2023-02-18T11:03:39;4.38;;;2.00;;
26806;SDS011;14380;49.910;6.792;2023-02-18T11:06:14;6.55;;;2.22;;
26806;SDS011;14380;49.910;6.792;2023-02-18T11:08:46;4.57;;;1.75;;
26806;SDS011;14380;49.910;6.792;2023-02-18T11:11:19;3.15;;;1.67;;
26806;SDS011;14380;49.910;6.792;2023-02-18T11:13:53;6.55;;;2.10;;
26806;SDS011;14380;49.910;6.792;2023-02-18T11:16:21;7.32;;;2.15;;
26806;SDS011;14380;49.910;6.792;2023-02-18T11:18:48;9.57;;;2.30;;
26806;SDS011;14380;49.910;6.792;2023-02-18T11:21:21;5.75;;;2.60;;
26806;SDS011;14380;49.910;6.792;2023-02-18T11:23:54;3.25;;;1.40;;
26806;SDS011;14380;49.910;6.792;2023-02-18T11:26:24;2.75;;;1.27;;
26806;SDS011;14380;49.910;6.792;2023-02-18T11:28:56;9.95;;;2.13;;
26806;SDS011;14380;49.910;6.792;2023-02-18T11:31:29;4.57;;;1.80;;
26806;SDS011;14380;49.910;6.792;2023-02-18T11:34:04;4.50;;;1.70;;
26806;SDS011;14380;49.910;6.792;2023-02-18T11:36:32;4.28;;;1.42;;
26806;SDS011;14380;49.910;6.792;2023-02-18T11:39:03;5.03;;;1.83;;
26806;SDS011;14380;49.910;6.792;2023-02-18T11:41:34;6.97;;;1.98;;
26806;SDS011;14380;49.910;6.792;2023-02-18T11:44:03;5.38;;;1.45;;
26806;SDS011;14380;49.910;6.792;2023-02-18T11:46:32;6.80;;;2.33;;
26806;SDS011;14380;49.910;6.792;2023-02-18T11:49:10;10.00;;;2.25;;
26806;SDS011;14380;49.910;6.792;2023-02-18T11:51:45;8.35;;;2.13;;
26806;SDS011;14380;49.910;6.792;2023-02-18T11:54:20;3.60;;;1.80;;
26806;SDS011;14380;49.910;6.792;2023-02-18T11:56:54;5.80;;;2.30;;
26806;SDS011;14380;49.910;6.792;2023-02-18T11:59:23;8.05;;;2.10;;
26806;SDS011;14380;49.910;6.792;2023-02-18T12:01:50;6.50;;;1.90;;
26806;SDS011;14380;49.910;6.792;2023-02-18T12:04:23;4.32;;;1.83;;
26806;SDS011;14380;49.910;6.792;2023-02-18T12:06:55;5.32;;;2.60;;
26806;SDS011;14380;49.910;6.792;2023-02-18T12:09:34;4.95;;;2.25;;
26806;SDS011;14380;49.910;6.792;2023-02-18T12:12:06;5.93;;;2.70;;
26806;SDS011;14380;49.910;6.792;2023-02-18T12:14:39;3.50;;;1.98;;
26806;SDS011;14380;49.910;6.792;2023-02-18T12:17:10;4.25;;;1.80;;
26806;SDS011;14380;49.910;6.792;2023-02-18T12:19:53;5.80;;;2.10;;
26806;SDS011;14380;49.910;6.792;2023-02-18T12:22:32;4.25;;;2.20;;
26806;SDS011;14380;49.910;6.792;2023-02-18T12:25:19;6.65;;;2.20;;
26806;SDS011;14380;49.910;6.792;2023-02-18T12:27:53;4.38;;;1.92;;
26806;SDS011;14380;49.910;6.792;2023-02-18T12:30:34;5.22;;;2.35;;
26806;SDS011;14380;49.910;6.792;2023-02-18T12:33:15;5.40;;;1.98;;
26806;SDS011;14380;49.910;6.792;2023-02-18T12:35:55;11.25;;;3.03;;
26806;SDS011;14380;49.910;6.792;2023-02-18T12:38:33;6.72;;;2.17;;
26806;SDS011;14380;49.910;6.792;2023-02-18T12:41:18;5.50;;;2.10;;
26806;SDS011;14380;49.910;6.792;2023-02-18T12:44:16;8.80;;;2.47;;
26806;SDS011;14380;49.910;6.792;2023-02-18T12:47:17;8.75;;;2.85;;
26806;SDS011;14380;49.910;6.792;2023-02-18T12:53:20;4.80;;;2.25;;
26806;SDS011;14380;49.910;6.792;2023-02-18T12:56:03;6.75;;;1.70;;
26806;SDS011;14380;49.910;6.792;2023-02-18T12:58:46;8.23;;;2.28;;
26806;SDS011;14380;49.910;6.792;2023-02-18T13:04:27;7.10;;;2.63;;
26806;SDS011;14380;49.910;6.792;2023-02-18T13:07:31;4.65;;;2.15;;
26806;SDS011;14380;49.910;6.792;2023-02-18T13:13:02;4.18;;;2.22;;
26806;SDS011;14380;49.910;6.792;2023-02-18T13:15:35;3.15;;;1.73;;
26806;SDS011;14380;49.910;6.792;2023-02-18T13:18:08;7.20;;;2.72;;
26806;SDS011;14380;49.910;6.792;2023-02-18T13:20:38;6.38;;;2.45;;
26806;SDS011;14380;49.910;6.792;2023-02-18T13:23:10;3.60;;;1.80;;
26806;SDS011;14380;49.910;6.792;2023-02-18T13:25:43;4.43;;;1.80;;
26806;SDS011;14380;49.910;6.792;2023-02-18T13:28:12;6.07;;;2.10;;
26806;SDS011;14380;49.910;6.792;2023-02-18T13:30:47;5.65;;;2.40;;
26806;SDS011;14380;49.910;6.792;2023-02-18T13:33:20;4.93;;;2.10;;
26806;SDS011;14380;49.910;6.792;2023-02-18T13:35:56;8.60;;;3.13;;
26806;SDS011;14380;49.910;6.792;2023-02-18T13:38:30;4.80;;;2.88;;
26806;SDS011;14380;49.910;6.792;2023-02-18T13:41:16;7.68;;;2.40;;
26806;SDS011;14380;49.910;6.792;2023-02-18T13:43:44;5.80;;;2.30;;
26806;SDS011;14380;49.910;6.792;2023-02-18T13:46:11;9.30;;;2.10;;
26806;SDS011;14380;49.910;6.792;2023-02-18T13:48:47;5.13;;;2.20;;
26806;SDS011;14380;49.910;6.792;2023-02-18T13:51:15;6.80;;;2.42;;
26806;SDS011;14380;49.910;6.792;2023-02-18T13:53:52;6.50;;;2.80;;
26806;SDS011;14380;49.910;6.792;2023-02-18T13:56:26;4.75;;;2.22;;
26806;SDS011;14380;49.910;6.792;2023-02-18T13:58:56;5.80;;;3.08;;
26806;SDS011;14380;49.910;6.792;2023-02-18T14:01:35;6.82;;;2.80;;
26806;SDS011;14380;49.910;6.792;2023-02-18T14:07:27;12.52;;;5.45;;
26806;SDS011;14380;49.910;6.792;2023-02-18T14:10:06;12.95;;;6.03;;
26806;SDS011;14380;49.910;6.792;2023-02-18T14:13:00;8.90;;;4.30;;
26806;SDS011;14380;49.910;6.792;2023-02-18T14:15:52;6.95;;;2.60;;
26806;SDS011;14380;49.910;6.792;2023-02-18T14:18:30;3.33;;;2.20;;
26806;SDS011;14380;49.910;6.792;2023-02-18T14:21:16;6.78;;;2.90;;
26806;SDS011;14380;49.910;6.792;2023-02-18T14:23:57;9.07;;;2.75;;
26806;SDS011;14380;49.910;6.792;2023-02-18T14:26:38;5.10;;;2.80;;
26806;SDS011;14380;49.910;6.792;2023-02-18T14:29:11;8.45;;;2.67;;
26806;SDS011;14380;49.910;6.792;2023-02-18T14:31:42;6.32;;;2.65;;
26806;SDS011;14380;49.910;6.792;2023-02-18T14:34:25;6.80;;;3.33;;
26806;SDS011;14380;49.910;6.792;2023-02-18T14:43:30;10.70;;;3.47;;
26806;SDS011;14380;49.910;6.792;2023-02-18T14:46:08;6.03;;;3.30;;
26806;SDS011;14380;49.910;6.792;2023-02-18T14:48:51;6.95;;;3.50;;
26806;SDS011;14380;49.910;6.792;2023-02-18T14:51:28;13.57;;;4.68;;
26806;SDS011;14380;49.910;6.792;2023-02-18T14:54:00;7.95;;;4.32;;
26806;SDS011;14380;49.910;6.792;2023-02-18T14:56:31;7.18;;;4.10;;
26806;SDS011;14380;49.910;6.792;2023-02-18T14:59:02;11.02;;;5.00;;
26806;SDS011;14380;49.910;6.792;2023-02-18T15:01:32;7.35;;;4.13;;
26806;SDS011;14380;49.910;6.792;2023-02-18T15:04:00;6.20;;;3.92;;
26806;SDS011;14380;49.910;6.792;2023-02-18T15:06:29;10.35;;;4.82;;
26806;SDS011;14380;49.910;6.792;2023-02-18T15:08:58;10.23;;;4.50;;
26806;SDS011;14380;49.910;6.792;2023-02-18T15:11:28;9.82;;;6.05;;
26806;SDS011;14380;49.910;6.792;2023-02-18T15:14:07;17.30;;;7.97;;
26806;SDS011;14380;49.910;6.792;2023-02-18T15:16:37;14.30;;;8.15;;
26806;SDS011;14380;49.910;6.792;2023-02-18T15:19:04;9.95;;;6.10;;
26806;SDS011;14380;49.910;6.792;2023-02-18T15:21:36;9.20;;;6.65;;
26806;SDS011;14380;49.910;6.792;2023-02-18T15:24:07;7.90;;;5.25;;
26806;SDS011;14380;49.910;6.792;2023-02-18T15:26:42;7.78;;;5.78;;
26806;SDS011;14380;49.910;6.792;2023-02-18T15:29:14;9.57;;;6.55;;
26806;SDS011;14380;49.910;6.792;2023-02-18T15:31:43;7.35;;;6.18;;
26806;SDS011;14380;49.910;6.792;2023-02-18T15:34:32;10.40;;;6.13;;
26806;SDS011;14380;49.910;6.792;2023-02-18T15:37:03;11.65;;;7.50;;
26806;SDS011;14380;49.910;6.792;2023-02-18T15:39:31;8.65;;;6.85;;
26806;SDS011;14380;49.910;6.792;2023-02-18T15:42:06;10.45;;;8.07;;